sensor_id;sensor_type;location;lat;lon;timestamp;pressure;altitude;pressure_sealevel;temperature;humidity
41102;BME280;26845;50.190;19.178;2022-12-18T00:01:26;100131.21;;;-4.12;86.70
41102;BME280;26845;50.190;19.178;2022-12-18T00:03:55;100139.12;;;-4.06;86.69
41102;BME280;26845;50.190;19.178;2022-12-18T00:06:23;100142.67;;;-4.05;86.57
41102;BME280;26845;50.190;19.178;2022-12-18T00:08:51;100149.08;;;-4.02;86.56
41102;BME280;26845;50.190;19.178;2022-12-18T00:11:21;100152.23;;;-4.10;86.31
41102;BME280;26845;50.190;19.178;2022-12-18T00:13:50;100152.59;;;-4.13;86.25
41102;BME280;26845;50.190;19.178;2022-12-18T00:16:20;100151.50;;;-4.18;86.24
41102;BME280;26845;50.190;19.178;2022-12-18T00:18:50;100151.95;;;-4.15;86.49
41102;BME280;26845;50.190;19.178;2022-12-18T00:21:19;100153.22;;;-4.07;86.84
41102;BME280;26845;50.190;19.178;2022-12-18T00:23:48;100157.67;;;-3.99;86.76
41102;BME280;26845;50.190;19.178;2022-12-18T00:26:20;100163.59;;;-3.95;86.43
41102;BME280;26845;50.190;19.178;2022-12-18T00:28:50;100154.95;;;-4.10;85.96
41102;BME280;26845;50.190;19.178;2022-12-18T00:31:21;100156.92;;;-4.18;86.01
41102;BME280;26845;50.190;19.178;2022-12-18T00:33:49;100153.27;;;-4.25;86.23
41102;BME280;26845;50.190;19.178;2022-12-18T00:36:22;100160.95;;;-4.29;86.20
41102;BME280;26845;50.190;19.178;2022-12-18T00:38:50;100163.38;;;-4.34;86.17
41102;BME280;26845;50.190;19.178;2022-12-18T00:41:18;100170.30;;;-4.32;86.43
41102;BME280;26845;50.190;19.178;2022-12-18T00:43:46;100174.92;;;-4.21;86.58
41102;BME280;26845;50.190;19.178;2022-12-18T00:46:13;100177.15;;;-4.21;86.17
41102;BME280;26845;50.190;19.178;2022-12-18T00:48:40;100180.41;;;-4.25;86.01
41102;BME280;26845;50.190;19.178;2022-12-18T00:51:06;100182.29;;;-4.26;85.93
41102;BME280;26845;50.190;19.178;2022-12-18T00:53:35;100185.91;;;-4.30;86.08
41102;BME280;26845;50.190;19.178;2022-12-18T00:56:02;100189.02;;;-4.37;86.00
41102;BME280;26845;50.190;19.178;2022-12-18T00:58:30;100199.44;;;-4.44;86.01
41102;BME280;26845;50.190;19.178;2022-12-18T01:00:57;100199.49;;;-4.48;86.08
41102;BME280;26845;50.190;19.178;2022-12-18T01:03:24;100202.20;;;-4.48;86.28
41102;BME280;26845;50.190;19.178;2022-12-18T01:05:50;100196.26;;;-4.48;86.33
41102;BME280;26845;50.190;19.178;2022-12-18T01:08:17;100196.58;;;-4.47;86.20
41102;BME280;26845;50.190;19.178;2022-12-18T01:10:44;100200.33;;;-4.48;86.25
41102;BME280;26845;50.190;19.178;2022-12-18T01:13:11;100206.13;;;-4.51;86.13
41102;BME280;26845;50.190;19.178;2022-12-18T01:15:38;100211.73;;;-4.53;86.26
41102;BME280;26845;50.190;19.178;2022-12-18T01:18:09;100219.63;;;-4.43;86.43
41102;BME280;26845;50.190;19.178;2022-12-18T01:20:37;100218.95;;;-4.45;86.11
41102;BME280;26845;50.190;19.178;2022-12-18T01:23:04;100217.80;;;-4.46;86.10
41102;BME280;26845;50.190;19.178;2022-12-18T01:25:32;100217.80;;;-4.46;86.12
41102;BME280;26845;50.190;19.178;2022-12-18T01:27:59;100215.41;;;-4.45;86.35
41102;BME280;26845;50.190;19.178;2022-12-18T01:30:26;100223.02;;;-4.45;86.17
41102;BME280;26845;50.190;19.178;2022-12-18T01:32:53;100216.91;;;-4.43;86.28
41102;BME280;26845;50.190;19.178;2022-12-18T01:35:20;100224.36;;;-4.41;86.26
41102;BME280;26845;50.190;19.178;2022-12-18T01:37:46;100213.45;;;-4.37;86.42
41102;BME280;26845;50.190;19.178;2022-12-18T01:40:13;100208.62;;;-4.31;86.37
41102;BME280;26845;50.190;19.178;2022-12-18T01:42:40;100217.44;;;-4.28;86.22
41102;BME280;26845;50.190;19.178;2022-12-18T01:50:40;100225.36;;;-4.23;86.34
41102;BME280;26845;50.190;19.178;2022-12-18T01:53:17;100227.52;;;-4.18;86.28
41102;BME280;26845;50.190;19.178;2022-12-18T01:55:50;100227.23;;;-4.23;86.02
41102;BME280;26845;50.190;19.178;2022-12-18T01:58:19;100222.03;;;-4.29;86.06
41102;BME280;26845;50.190;19.178;2022-12-18T02:00:49;100231.33;;;-4.27;86.09
41102;BME280;26845;50.190;19.178;2022-12-18T02:03:16;100236.23;;;-4.27;86.28
41102;BME280;26845;50.190;19.178;2022-12-18T02:14:38;100256.14;;;-4.31;86.04
41102;BME280;26845;50.190;19.178;2022-12-18T02:17:14;100266.80;;;-4.44;85.94
41102;BME280;26845;50.190;19.178;2022-12-18T02:25:53;100273.80;;;-4.49;86.20
41102;BME280;26845;50.190;19.178;2022-12-18T02:28:45;100278.21;;;-4.53;86.29
41102;BME280;26845;50.190;19.178;2022-12-18T02:31:17;100283.75;;;-4.65;86.44
41102;BME280;26845;50.190;19.178;2022-12-18T02:33:47;100290.80;;;-4.75;86.43
41102;BME280;26845;50.190;19.178;2022-12-18T02:36:16;100286.09;;;-4.81;86.52
41102;BME280;26845;50.190;19.178;2022-12-18T02:38:45;100288.50;;;-4.86;86.68
41102;BME280;26845;50.190;19.178;2022-12-18T02:41:14;100296.16;;;-4.89;86.89
41102;BME280;26845;50.190;19.178;2022-12-18T02:43:52;100288.88;;;-4.93;86.87
41102;BME280;26845;50.190;19.178;2022-12-18T02:49:36;100293.94;;;-4.90;86.94
41102;BME280;26845;50.190;19.178;2022-12-18T02:57:54;100314.28;;;-4.90;86.92
41102;BME280;26845;50.190;19.178;2022-12-18T03:06:10;100316.56;;;-5.02;87.20
41102;BME280;26845;50.190;19.178;2022-12-18T03:08:46;100325.69;;;-4.99;87.16
41102;BME280;26845;50.190;19.178;2022-12-18T03:11:15;100338.73;;;-4.94;87.17
41102;BME280;26845;50.190;19.178;2022-12-18T03:13:52;100339.56;;;-4.89;87.19
41102;BME280;26845;50.190;19.178;2022-12-18T03:16:28;100346.34;;;-4.89;87.03
41102;BME280;26845;50.190;19.178;2022-12-18T03:18:58;100347.50;;;-4.88;87.08
41102;BME280;26845;50.190;19.178;2022-12-18T03:21:40;100343.31;;;-4.94;87.12
41102;BME280;26845;50.190;19.178;2022-12-18T03:24:11;100337.41;;;-5.02;87.14
41102;BME280;26845;50.190;19.178;2022-12-18T03:26:41;100334.90;;;-5.04;87.16
41102;BME280;26845;50.190;19.178;2022-12-18T03:29:12;100330.28;;;-4.99;87.20
41102;BME280;26845;50.190;19.178;2022-12-18T03:31:46;100336.02;;;-4.98;87.20
41102;BME280;26845;50.190;19.178;2022-12-18T03:34:17;100332.47;;;-4.99;87.16
41102;BME280;26845;50.190;19.178;2022-12-18T03:36:52;100327.92;;;-5.02;87.25
41102;BME280;26845;50.190;19.178;2022-12-18T03:39:19;100336.74;;;-5.04;87.21
41102;BME280;26845;50.190;19.178;2022-12-18T03:45:13;100334.55;;;-5.05;87.43
41102;BME280;26845;50.190;19.178;2022-12-18T03:50:54;100343.55;;;-5.08;87.37
41102;BME280;26845;50.190;19.178;2022-12-18T03:56:04;100351.69;;;-5.12;87.73
41102;BME280;26845;50.190;19.178;2022-12-18T03:58:34;100359.83;;;-5.08;87.71
41102;BME280;26845;50.190;19.178;2022-12-18T04:01:05;100359.83;;;-5.08;87.71
41102;BME280;26845;50.190;19.178;2022-12-18T04:03:34;100359.98;;;-5.10;87.60
41102;BME280;26845;50.190;19.178;2022-12-18T04:06:02;100361.02;;;-5.11;87.46
41102;BME280;26845;50.190;19.178;2022-12-18T04:08:30;100365.25;;;-5.12;87.58
41102;BME280;26845;50.190;19.178;2022-12-18T04:10:57;100362.41;;;-5.15;87.72
41102;BME280;26845;50.190;19.178;2022-12-18T04:13:34;100365.64;;;-5.20;87.62
41102;BME280;26845;50.190;19.178;2022-12-18T04:16:04;100369.52;;;-5.18;87.63
41102;BME280;26845;50.190;19.178;2022-12-18T04:18:31;100375.09;;;-5.15;87.63
41102;BME280;26845;50.190;19.178;2022-12-18T04:20:58;100380.88;;;-5.14;87.64
41102;BME280;26845;50.190;19.178;2022-12-18T04:23:25;100382.39;;;-5.16;87.90
41102;BME280;26845;50.190;19.178;2022-12-18T04:25:52;100388.84;;;-5.17;87.68
41102;BME280;26845;50.190;19.178;2022-12-18T04:28:18;100394.59;;;-5.16;87.79
41102;BME280;26845;50.190;19.178;2022-12-18T04:30:46;100397.49;;;-5.17;87.70
41102;BME280;26845;50.190;19.178;2022-12-18T04:33:13;100402.23;;;-5.20;87.72
41102;BME280;26845;50.190;19.178;2022-12-18T04:35:41;100400.88;;;-5.20;87.69
41102;BME280;26845;50.190;19.178;2022-12-18T04:38:08;100410.31;;;-5.07;87.90
41102;BME280;26845;50.190;19.178;2022-12-18T04:40:38;100410.59;;;-4.94;87.95
41102;BME280;26845;50.190;19.178;2022-12-18T04:43:05;100419.38;;;-4.88;87.65
41102;BME280;26845;50.190;19.178;2022-12-18T04:45:33;100425.80;;;-4.81;87.75
41102;BME280;26845;50.190;19.178;2022-12-18T04:48:01;100422.01;;;-4.71;87.61
41102;BME280;26845;50.190;19.178;2022-12-18T04:50:29;100421.17;;;-4.72;87.45
41102;BME280;26845;50.190;19.178;2022-12-18T04:52:57;100418.30;;;-4.79;87.30
41102;BME280;26845;50.190;19.178;2022-12-18T04:55:24;100422.09;;;-4.84;87.28
41102;BME280;26845;50.190;19.178;2022-12-18T04:57:51;100432.26;;;-4.86;87.40
41102;BME280;26845;50.190;19.178;2022-12-18T05:00:18;100433.77;;;-4.83;87.60
41102;BME280;26845;50.190;19.178;2022-12-18T05:02:46;100434.58;;;-4.79;87.51
41102;BME280;26845;50.190;19.178;2022-12-18T05:05:13;100436.77;;;-4.74;87.67
41102;BME280;26845;50.190;19.178;2022-12-18T05:07:39;100440.96;;;-4.63;87.72
41102;BME280;26845;50.190;19.178;2022-12-18T05:10:07;100434.94;;;-4.50;87.95
41102;BME280;26845;50.190;19.178;2022-12-18T05:12:35;100440.27;;;-4.34;88.15
41102;BME280;26845;50.190;19.178;2022-12-18T05:15:04;100450.87;;;-4.24;87.88
41102;BME280;26845;50.190;19.178;2022-12-18T05:17:32;100445.39;;;-4.16;87.89
41102;BME280;26845;50.190;19.178;2022-12-18T05:19:59;100452.79;;;-4.06;87.75
41102;BME280;26845;50.190;19.178;2022-12-18T05:22:25;100454.09;;;-3.98;87.73
41102;BME280;26845;50.190;19.178;2022-12-18T05:24:52;100458.69;;;-3.98;87.51
41102;BME280;26845;50.190;19.178;2022-12-18T05:27:19;100455.09;;;-3.99;87.21
41102;BME280;26845;50.190;19.178;2022-12-18T05:29:47;100457.33;;;-3.98;87.32
41102;BME280;26845;50.190;19.178;2022-12-18T05:32:13;100459.17;;;-3.99;87.19
41102;BME280;26845;50.190;19.178;2022-12-18T05:34:40;100461.56;;;-4.00;86.97
41102;BME280;26845;50.190;19.178;2022-12-18T05:37:10;100473.17;;;-4.10;86.76
41102;BME280;26845;50.190;19.178;2022-12-18T05:39:37;100464.44;;;-4.20;86.65
41102;BME280;26845;50.190;19.178;2022-12-18T05:42:03;100469.50;;;-4.17;87.15
41102;BME280;26845;50.190;19.178;2022-12-18T05:44:30;100474.05;;;-4.10;87.38
41102;BME280;26845;50.190;19.178;2022-12-18T05:46:57;100471.37;;;-3.95;87.62
41102;BME280;26845;50.190;19.178;2022-12-18T05:49:24;100480.67;;;-3.89;87.40
41102;BME280;26845;50.190;19.178;2022-12-18T05:51:50;100471.80;;;-3.87;87.22
41102;BME280;26845;50.190;19.178;2022-12-18T05:54:17;100472.33;;;-3.88;86.98
41102;BME280;26845;50.190;19.178;2022-12-18T05:56:44;100472.33;;;-3.88;86.93
41102;BME280;26845;50.190;19.178;2022-12-18T05:59:11;100481.19;;;-3.90;86.88
41102;BME280;26845;50.190;19.178;2022-12-18T06:01:37;100485.34;;;-4.02;86.48
41102;BME280;26845;50.190;19.178;2022-12-18T06:04:07;100482.92;;;-4.20;86.40
41102;BME280;26845;50.190;19.178;2022-12-18T06:06:34;100482.09;;;-4.20;86.79
41102;BME280;26845;50.190;19.178;2022-12-18T06:09:01;100483.41;;;-4.16;86.90
41102;BME280;26845;50.190;19.178;2022-12-18T06:11:28;100486.52;;;-4.23;86.65
41102;BME280;26845;50.190;19.178;2022-12-18T06:13:56;100485.89;;;-4.30;86.66
41102;BME280;26845;50.190;19.178;2022-12-18T06:16:23;100488.69;;;-4.46;86.47
41102;BME280;26845;50.190;19.178;2022-12-18T06:18:49;100501.11;;;-4.52;86.76
41102;BME280;26845;50.190;19.178;2022-12-18T06:21:16;100502.66;;;-4.57;86.75
41102;BME280;26845;50.190;19.178;2022-12-18T06:23:43;100500.66;;;-4.67;86.75
41102;BME280;26845;50.190;19.178;2022-12-18T06:26:11;100495.42;;;-4.73;86.89
41102;BME280;26845;50.190;19.178;2022-12-18T06:28:39;100504.76;;;-4.76;86.93
41102;BME280;26845;50.190;19.178;2022-12-18T06:31:06;100508.86;;;-4.80;87.02
41102;BME280;26845;50.190;19.178;2022-12-18T06:33:34;100507.50;;;-4.80;87.13
41102;BME280;26845;50.190;19.178;2022-12-18T06:36:13;100512.59;;;-4.85;87.05
41102;BME280;26845;50.190;19.178;2022-12-18T06:38:41;100512.77;;;-4.82;87.21
41102;BME280;26845;50.190;19.178;2022-12-18T06:41:11;100518.67;;;-4.79;87.29
41102;BME280;26845;50.190;19.178;2022-12-18T06:43:41;100525.27;;;-4.69;87.54
41102;BME280;26845;50.190;19.178;2022-12-18T06:46:08;100529.63;;;-4.60;87.46
41102;BME280;26845;50.190;19.178;2022-12-18T06:48:35;100532.47;;;-4.49;87.47
41102;BME280;26845;50.190;19.178;2022-12-18T06:51:02;100538.22;;;-4.44;87.47
41102;BME280;26845;50.190;19.178;2022-12-18T06:53:29;100540.23;;;-4.38;87.33
41102;BME280;26845;50.190;19.178;2022-12-18T06:56:02;100543.78;;;-4.37;87.15
41102;BME280;26845;50.190;19.178;2022-12-18T06:58:30;100548.66;;;-4.33;87.16
41102;BME280;26845;50.190;19.178;2022-12-18T07:01:02;100543.59;;;-4.36;87.10
41102;BME280;26845;50.190;19.178;2022-12-18T07:03:30;100546.66;;;-4.39;86.85
41102;BME280;26845;50.190;19.178;2022-12-18T07:05:57;100550.77;;;-4.43;86.88
41102;BME280;26845;50.190;19.178;2022-12-18T07:08:24;100554.19;;;-4.49;86.73
41102;BME280;26845;50.190;19.178;2022-12-18T07:10:51;100554.38;;;-4.55;86.81
41102;BME280;26845;50.190;19.178;2022-12-18T07:13:19;100556.73;;;-4.56;86.96
41102;BME280;26845;50.190;19.178;2022-12-18T07:15:46;100564.52;;;-4.53;86.99
41102;BME280;26845;50.190;19.178;2022-12-18T07:18:13;100567.89;;;-4.42;87.37
41102;BME280;26845;50.190;19.178;2022-12-18T07:20:39;100573.28;;;-4.34;87.19
41102;BME280;26845;50.190;19.178;2022-12-18T07:23:06;100578.36;;;-4.31;86.99
41102;BME280;26845;50.190;19.178;2022-12-18T07:25:36;100579.04;;;-4.29;87.02
41102;BME280;26845;50.190;19.178;2022-12-18T07:28:03;100582.75;;;-4.26;86.81
41102;BME280;26845;50.190;19.178;2022-12-18T07:30:30;100588.89;;;-4.36;86.58
41102;BME280;26845;50.190;19.178;2022-12-18T07:32:57;100598.42;;;-4.44;86.60
41102;BME280;26845;50.190;19.178;2022-12-18T07:35:24;100602.50;;;-4.40;87.03
41102;BME280;26845;50.190;19.178;2022-12-18T07:37:51;100611.29;;;-4.34;87.04
41102;BME280;26845;50.190;19.178;2022-12-18T07:40:17;100597.81;;;-4.19;87.47
41102;BME280;26845;50.190;19.178;2022-12-18T07:42:44;100606.36;;;-3.95;87.80
41102;BME280;26845;50.190;19.178;2022-12-18T07:45:11;100607.80;;;-3.85;87.30
41102;BME280;26845;50.190;19.178;2022-12-18T07:47:38;100611.52;;;-3.81;86.74
41102;BME280;26845;50.190;19.178;2022-12-18T07:50:07;100603.80;;;-3.93;86.46
41102;BME280;26845;50.190;19.178;2022-12-18T07:52:34;100605.69;;;-3.97;86.36
41102;BME280;26845;50.190;19.178;2022-12-18T07:55:01;100603.33;;;-4.00;86.34
41102;BME280;26845;50.190;19.178;2022-12-18T07:57:28;100595.02;;;-4.03;86.27
41102;BME280;26845;50.190;19.178;2022-12-18T07:59:55;100603.84;;;-4.01;86.36
41102;BME280;26845;50.190;19.178;2022-12-18T08:02:22;100605.33;;;-3.94;86.56
41102;BME280;26845;50.190;19.178;2022-12-18T08:04:48;100601.68;;;-3.78;87.05
41102;BME280;26845;50.190;19.178;2022-12-18T08:07:15;100603.22;;;-3.57;87.32
41102;BME280;26845;50.190;19.178;2022-12-18T08:09:45;100604.24;;;-3.35;87.31
41102;BME280;26845;50.190;19.178;2022-12-18T08:12:14;100605.59;;;-3.16;87.31
41102;BME280;26845;50.190;19.178;2022-12-18T08:14:41;100604.09;;;-3.00;87.16
41102;BME280;26845;50.190;19.178;2022-12-18T08:17:08;100597.80;;;-2.81;87.11
41102;BME280;26845;50.190;19.178;2022-12-18T08:19:35;100602.21;;;-2.65;87.03
41102;BME280;26845;50.190;19.178;2022-12-18T08:22:04;100604.98;;;-2.55;86.80
41102;BME280;26845;50.190;19.178;2022-12-18T08:24:31;100604.23;;;-2.49;86.51
41102;BME280;26845;50.190;19.178;2022-12-18T08:26:57;100611.79;;;-2.40;86.39
41102;BME280;26845;50.190;19.178;2022-12-18T08:29:24;100603.14;;;-2.29;86.42
41102;BME280;26845;50.190;19.178;2022-12-18T08:31:51;100611.22;;;-2.20;86.32
41102;BME280;26845;50.190;19.178;2022-12-18T08:34:18;100610.73;;;-2.09;86.33
41102;BME280;26845;50.190;19.178;2022-12-18T08:36:45;100608.29;;;-2.04;85.98
41102;BME280;26845;50.190;19.178;2022-12-18T08:39:12;100601.38;;;-1.96;85.98
41102;BME280;26845;50.190;19.178;2022-12-18T08:41:39;100610.31;;;-1.91;85.75
41102;BME280;26845;50.190;19.178;2022-12-18T08:44:07;100621.81;;;-1.85;85.72
41102;BME280;26845;50.190;19.178;2022-12-18T08:46:52;100624.50;;;-1.81;85.49
41102;BME280;26845;50.190;19.178;2022-12-18T08:49:19;100629.98;;;-1.70;85.43
41102;BME280;26845;50.190;19.178;2022-12-18T08:51:46;100639.91;;;-1.63;85.26
41102;BME280;26845;50.190;19.178;2022-12-18T08:54:13;100648.17;;;-1.56;84.69
41102;BME280;26845;50.190;19.178;2022-12-18T08:56:40;100641.97;;;-1.75;83.80
41102;BME280;26845;50.190;19.178;2022-12-18T08:59:08;100645.05;;;-1.89;83.88
41102;BME280;26845;50.190;19.178;2022-12-18T09:04:12;100652.09;;;-2.35;83.00
41102;BME280;26845;50.190;19.178;2022-12-18T09:06:40;100655.42;;;-2.44;83.37
41102;BME280;26845;50.190;19.178;2022-12-18T09:09:07;100661.94;;;-2.49;83.74
41102;BME280;26845;50.190;19.178;2022-12-18T09:11:34;100659.51;;;-2.44;83.83
41102;BME280;26845;50.190;19.178;2022-12-18T09:14:01;100659.88;;;-2.47;83.60
41102;BME280;26845;50.190;19.178;2022-12-18T09:16:28;100660.34;;;-2.58;83.22
41102;BME280;26845;50.190;19.178;2022-12-18T09:18:56;100662.47;;;-2.68;84.73
41102;BME280;26845;50.190;19.178;2022-12-18T09:21:33;100666.48;;;-2.60;83.56
41102;BME280;26845;50.190;19.178;2022-12-18T09:23:58;100670.94;;;-2.63;83.22
41102;BME280;26845;50.190;19.178;2022-12-18T09:26:26;100676.30;;;-2.74;82.60
41102;BME280;26845;50.190;19.178;2022-12-18T09:28:53;100676.19;;;-3.00;82.15
41102;BME280;26845;50.190;19.178;2022-12-18T09:31:22;100673.64;;;-3.20;82.25
41102;BME280;26845;50.190;19.178;2022-12-18T09:33:50;100677.30;;;-3.32;82.69
41102;BME280;26845;50.190;19.178;2022-12-18T09:36:18;100678.19;;;-3.40;82.58
41102;BME280;26845;50.190;19.178;2022-12-18T09:38:46;100671.96;;;-3.48;82.74
41102;BME280;26845;50.190;19.178;2022-12-18T09:44:15;100678.95;;;-3.50;83.02
41102;BME280;26845;50.190;19.178;2022-12-18T09:49:55;100690.91;;;-3.36;83.14
41102;BME280;26845;50.190;19.178;2022-12-18T09:52:39;100695.23;;;-3.19;83.55
41102;BME280;26845;50.190;19.178;2022-12-18T09:57:56;100691.42;;;-3.36;82.53
41102;BME280;26845;50.190;19.178;2022-12-18T10:00:29;100687.39;;;-3.41;83.12
41102;BME280;26845;50.190;19.178;2022-12-18T10:03:08;100684.05;;;-3.28;83.27
41102;BME280;26845;50.190;19.178;2022-12-18T10:05:54;100681.73;;;-3.12;83.53
41102;BME280;26845;50.190;19.178;2022-12-18T10:11:53;100686.10;;;-2.84;83.31
41102;BME280;26845;50.190;19.178;2022-12-18T10:17:22;100677.09;;;-2.51;83.58
41102;BME280;26845;50.190;19.178;2022-12-18T10:20:05;100672.23;;;-2.59;82.28
41102;BME280;26845;50.190;19.178;2022-12-18T10:23:08;100669.25;;;-2.64;82.56
41102;BME280;26845;50.190;19.178;2022-12-18T10:25:50;100672.53;;;-2.54;83.01
41102;BME280;26845;50.190;19.178;2022-12-18T10:28:19;100671.64;;;-2.51;83.00
41102;BME280;26845;50.190;19.178;2022-12-18T10:30:47;100683.80;;;-2.57;82.55
41102;BME280;26845;50.190;19.178;2022-12-18T10:33:16;100674.02;;;-2.47;82.97
41102;BME280;26845;50.190;19.178;2022-12-18T10:35:47;100666.69;;;-2.32;83.23
41102;BME280;26845;50.190;19.178;2022-12-18T10:43:36;100654.27;;;-1.90;83.38
41102;BME280;26845;50.190;19.178;2022-12-18T10:51:27;100650.95;;;-1.60;83.14
41102;BME280;26845;50.190;19.178;2022-12-18T10:56:33;100641.24;;;-1.48;82.99
41102;BME280;26845;50.190;19.178;2022-12-18T10:59:04;100638.44;;;-1.44;82.73
41102;BME280;26845;50.190;19.178;2022-12-18T11:01:56;100637.34;;;-1.39;82.85
41102;BME280;26845;50.190;19.178;2022-12-18T11:04:25;100633.75;;;-1.28;82.84
41102;BME280;26845;50.190;19.178;2022-12-18T11:09:29;100634.36;;;-0.73;82.85
41102;BME280;26845;50.190;19.178;2022-12-18T11:12:04;100627.39;;;-0.47;82.50
41102;BME280;26845;50.190;19.178;2022-12-18T11:14:46;100629.07;;;-0.29;82.28
41102;BME280;26845;50.190;19.178;2022-12-18T11:20:04;100618.94;;;0.00;81.18
41102;BME280;26845;50.190;19.178;2022-12-18T11:22:36;100614.33;;;0.07;81.02
41102;BME280;26845;50.190;19.178;2022-12-18T11:27:54;100612.98;;;0.51;80.66
41102;BME280;26845;50.190;19.178;2022-12-18T11:30:27;100615.68;;;0.69;80.56
41102;BME280;26845;50.190;19.178;2022-12-18T11:33:01;100610.64;;;0.92;80.16
41102;BME280;26845;50.190;19.178;2022-12-18T11:38:19;100613.50;;;1.15;79.89
41102;BME280;26845;50.190;19.178;2022-12-18T11:41:28;100611.79;;;1.40;79.17
41102;BME280;26845;50.190;19.178;2022-12-18T11:44:34;100611.79;;;1.40;79.17
41102;BME280;26845;50.190;19.178;2022-12-18T11:50:13;100616.92;;;1.52;79.40
41102;BME280;26845;50.190;19.178;2022-12-18T11:52:44;100622.24;;;1.83;79.51
41102;BME280;26845;50.190;19.178;2022-12-18T11:55:56;100619.14;;;1.95;78.84
41102;BME280;26845;50.190;19.178;2022-12-18T12:07:18;100626.98;;;2.59;78.51
41102;BME280;26845;50.190;19.178;2022-12-18T12:10:13;100629.96;;;2.74;77.59
41102;BME280;26845;50.190;19.178;2022-12-18T12:15:39;100621.41;;;2.88;80.01
41102;BME280;26845;50.190;19.178;2022-12-18T12:21:42;100631.70;;;2.23;76.02
41102;BME280;26845;50.190;19.178;2022-12-18T12:27:20;100630.33;;;2.61;77.13
41102;BME280;26845;50.190;19.178;2022-12-18T12:30:16;100624.59;;;2.85;77.24
41102;BME280;26845;50.190;19.178;2022-12-18T12:38:27;100640.94;;;3.05;76.35
41102;BME280;26845;50.190;19.178;2022-12-18T12:41:07;100644.36;;;2.85;75.60
41102;BME280;26845;50.190;19.178;2022-12-18T12:43:44;100648.20;;;2.77;75.83
41102;BME280;26845;50.190;19.178;2022-12-18T12:46:17;100651.74;;;2.68;76.10
41102;BME280;26845;50.190;19.178;2022-12-18T12:48:58;100651.30;;;2.72;76.22
41102;BME280;26845;50.190;19.178;2022-12-18T12:51:28;100652.77;;;2.74;76.23
41102;BME280;26845;50.190;19.178;2022-12-18T12:54:00;100645.81;;;2.72;76.01
41102;BME280;26845;50.190;19.178;2022-12-18T12:59:49;100646.36;;;2.64;75.51
41102;BME280;26845;50.190;19.178;2022-12-18T13:05:50;100653.47;;;2.40;75.50
41102;BME280;26845;50.190;19.178;2022-12-18T13:08:29;100667.87;;;2.29;75.63
41102;BME280;26845;50.190;19.178;2022-12-18T13:10:59;100662.92;;;2.22;75.62
41102;BME280;26845;50.190;19.178;2022-12-18T13:13:55;100666.83;;;2.23;75.73
41102;BME280;26845;50.190;19.178;2022-12-18T13:16:24;100670.87;;;2.08;74.97
41102;BME280;26845;50.190;19.178;2022-12-18T13:18:53;100667.17;;;1.75;74.40
41102;BME280;26845;50.190;19.178;2022-12-18T13:21:27;100665.73;;;1.06;74.56
41102;BME280;26845;50.190;19.178;2022-12-18T13:23:55;100665.73;;;1.06;74.56
41102;BME280;26845;50.190;19.178;2022-12-18T13:28:57;100688.10;;;0.79;74.73
41102;BME280;26845;50.190;19.178;2022-12-18T13:34:26;100683.89;;;0.15;74.25
41102;BME280;26845;50.190;19.178;2022-12-18T13:40:01;100687.66;;;-0.03;78.94
41102;BME280;26845;50.190;19.178;2022-12-18T13:42:39;100676.83;;;-0.07;75.96
41102;BME280;26845;50.190;19.178;2022-12-18T13:45:41;100676.83;;;-0.07;75.96
41102;BME280;26845;50.190;19.178;2022-12-18T13:48:21;100690.46;;;-0.14;75.56
41102;BME280;26845;50.190;19.178;2022-12-18T13:50:56;100691.98;;;-0.22;75.62
41102;BME280;26845;50.190;19.178;2022-12-18T13:56:16;100699.83;;;-0.40;75.52
41102;BME280;26845;50.190;19.178;2022-12-18T13:58:44;100698.88;;;-0.54;75.39
41102;BME280;26845;50.190;19.178;2022-12-18T14:01:22;100701.65;;;-0.65;75.26
41102;BME280;26845;50.190;19.178;2022-12-18T14:04:07;100706.67;;;-0.79;75.29
41102;BME280;26845;50.190;19.178;2022-12-18T14:06:37;100709.32;;;-0.86;75.46
41102;BME280;26845;50.190;19.178;2022-12-18T14:09:04;100714.15;;;-0.99;75.33
41102;BME280;26845;50.190;19.178;2022-12-18T14:11:32;100700.49;;;-1.09;75.34
41102;BME280;26845;50.190;19.178;2022-12-18T14:13:59;100702.19;;;-1.19;75.37
41102;BME280;26845;50.190;19.178;2022-12-18T14:16:27;100708.55;;;-1.33;75.11
41102;BME280;26845;50.190;19.178;2022-12-18T14:18:56;100702.51;;;-1.54;75.08
41102;BME280;26845;50.190;19.178;2022-12-18T14:21:30;100705.45;;;-1.71;75.23
41102;BME280;26845;50.190;19.178;2022-12-18T14:26:45;100703.84;;;-2.06;75.17
41102;BME280;26845;50.190;19.178;2022-12-18T14:32:12;100699.23;;;-2.35;75.33
41102;BME280;26845;50.190;19.178;2022-12-18T14:34:49;100704.98;;;-2.49;75.15
41102;BME280;26845;50.190;19.178;2022-12-18T14:37:28;100709.59;;;-2.68;75.09
41102;BME280;26845;50.190;19.178;2022-12-18T14:40:11;100710.22;;;-2.81;75.02
41102;BME280;26845;50.190;19.178;2022-12-18T14:42:41;100703.53;;;-2.93;75.27
41102;BME280;26845;50.190;19.178;2022-12-18T14:45:40;100705.13;;;-3.03;75.30
41102;BME280;26845;50.190;19.178;2022-12-18T14:51:31;100709.41;;;-3.27;75.23
41102;BME280;26845;50.190;19.178;2022-12-18T14:53:58;100708.61;;;-3.40;75.11
41102;BME280;26845;50.190;19.178;2022-12-18T14:56:45;100715.86;;;-3.55;74.95
41102;BME280;26845;50.190;19.178;2022-12-18T14:59:21;100724.05;;;-3.68;75.10
41102;BME280;26845;50.190;19.178;2022-12-18T15:02:03;100725.31;;;-3.78;75.26
41102;BME280;26845;50.190;19.178;2022-12-18T15:04:47;100719.39;;;-3.86;75.22
41102;BME280;26845;50.190;19.178;2022-12-18T15:07:17;100730.12;;;-3.93;75.42
41102;BME280;26845;50.190;19.178;2022-12-18T15:10:10;100729.96;;;-3.99;75.42
41102;BME280;26845;50.190;19.178;2022-12-18T15:26:07;100743.86;;;-4.58;75.31
41102;BME280;26845;50.190;19.178;2022-12-18T15:31:33;100751.83;;;-4.69;75.29
41102;BME280;26845;50.190;19.178;2022-12-18T15:34:18;100753.85;;;-4.79;75.33
41102;BME280;26845;50.190;19.178;2022-12-18T15:36:42;100755.37;;;-4.85;75.48